Lake Placid, NY

6:25 AM EDT on September 16, 2014 (GMT -0400)
Lake Placid | Change Station
CLOSE
Current Station
Personal Weather Station
Location: Lake Placid, NY
Elevation: 1896 ft
Nearby Weather Stations

Elev 1896 ft 44.29 °N, 73.99 °W | Updated 24 seconds ago

Rain
Rain
47.8 °F
Feels Like 48 °F
N
0.0
Wind Variable Wind from SW
Gusts 0.0 mph

Today
High -- | Low -- °F
--% Chance of Precip.
Yesterday
High -- | Low -- °F
Precip. -- in
6:36 AM 7:04 PM
Waning Gibbous, 47% visible
Pressure 29.99 in
Visibility 6.0 miles
Clouds Overcast 6500 ft
Windchill 48 °F
Dew Point 47 °F
Humidity 97%
Rainfall 0.00 in
Snow Depth Not available.
UV 0 out of 12
Pollen 2.00 out of 12
Air Quality Not available.
Flu Activity Not available.
METAR KSLK 160951Z AUTO 20003KT 6SM -RA BR OVC065 09/08 A2998 RMK AO2 SLP155 P0001 T00890083

More Conditions Fewer Conditions

Pressure 29.99 in
Visibility 6.0 miles
Clouds Overcast 6500 ft
Windchill 48 °F
Dew Point 47 °F
Humidity 97%
Rainfall 0.00 in
Snow Depth Not available.
UV 0 out of 12
Pollen 2.00 out of 12
Air Quality Not available.
Flu Activity Not available.
METAR KSLK 160951Z AUTO 20003KT 6SM -RA BR OVC065 09/08 A2998 RMK AO2 SLP155 P0001 T00890083

More Conditions Fewer Conditions

10-Day Weather Forecast

Almanac

Astronomy

Sep. 16, 2014 Rise Set
Actual Time 6:36 AM EDT 7:04 PM EDT
Civil Twilight 6:07 AM EDT 7:33 PM EDT
Nautical Twilight 5:32 AM EDT 8:07 PM EDT
Astronomical Twilight 4:57 AM EDT 8:43 PM EDT
Moon No Moon Rise 2:35 PM EDT
Length of Visible Light 13h 26m
Length of Day
12h 28m
Tomorrow will be 3m 2s shorter.
Waning Gibbous, 47% of the Moon is Illuminated
Today
Waning Gibbous
Sep 24
New
Oct 1
First Quarter
Oct 8
Full
Oct 15
Last Quarter

Today's Extremes

State Highs State Lows

Community

WunderPhotos

Upload Photos

1,753,718 photos uploaded!

WunderBlogs® & News

Nearby

Air Quality

  Air Quality AQ Index Pollutant
Tuesday Good
OZONE
Tuesday Good
PM2.5

Snow Depth

Station Depth Elevation
No new snow has been reported.

Earthquake Activity

City Distance Mag. Time & Date
No recent earthquake activity has been reported nearby.
Minimum magnitude displayed is 2.5.

Coastal Water Temperatures

Place Temperature
No Stations Reporting

Nearby Weather Stations